Welcome to Des Moines Iowa Weather. I am an independent private personal weather station on the Northwest Side of Des Moines, Iowa. Just East of Windsor Heights and just West of Glendale . This site is also mobile friendly.

There are no active watches, warnings or advisories


Visit our other weather sites:

Historical Data

Weather Station Setup



Weather Underground History page Text

Daily Summary for February 13, 2018 Units:  English    Metric   Both
« Previous Day
Next Day »
Daily Weekly Monthly Yearly Custom
  High: Low: Average:
Temperature: 38.4 °F 14.3 °F 26 °F
Dew Point: 27.0 °F 5.0 °F 17.2 °F
Humidity: 80 % 60 % 70 %
Wind Speed: 5.0 mph 0.0 mph 1.3 mph
Wind Gust: 11.0 mph - -
Wind:- - SSE
Pressure: 30.71 in 30.16 in -
Precipitation: 0.01 in    
Historical Graphs
 
 
Tabular Data for February 13, 2018
Time Temperature Dew Point Pressure Wind Wind Speed Wind Gust Humidity Rainfall Rate (Hourly)
00:07 14.3 °F 5.0 °F 30.70 in ENE 1.0 mph 8.0 mph 67 % 0.00 in
00:22 14.4 °F 5.0 °F 30.71 in NE 4.0 mph 4.0 mph 67 % 0.00 in
00:37 14.5 °F 5.0 °F 30.71 in Calm   3.0 mph 67 % 0.00 in
00:52 14.6 °F 5.0 °F 30.71 in Calm   3.0 mph 67 % 0.00 in
01:07 14.6 °F 5.0 °F 30.71 in East 2.0 mph 3.0 mph 67 % 0.00 in
01:22 14.7 °F 6.0 °F 30.69 in ESE 1.0 mph 4.0 mph 67 % 0.00 in
01:37 14.8 °F 6.0 °F 30.70 in Calm   6.0 mph 67 % 0.00 in
01:52 14.8 °F 5.0 °F 30.68 in SSE 1.0 mph 6.0 mph 66 % 0.00 in
02:07 14.8 °F 5.0 °F 30.68 in SE 2.0 mph 8.0 mph 65 % 0.00 in
02:22 14.9 °F 5.0 °F 30.68 in SE 3.0 mph 5.0 mph 66 % 0.00 in
02:39 15.0 °F 5.0 °F 30.67 in Calm   6.0 mph 65 % 0.00 in
02:55 15.2 °F 5.0 °F 30.67 in Calm   3.0 mph 65 % 0.00 in
03:07 15.3 °F 5.0 °F 30.65 in Calm   3.0 mph 65 % 0.00 in
03:23 15.5 °F 6.0 °F 30.65 in SSE 2.0 mph 3.0 mph 66 % 0.00 in
03:37 15.5 °F 6.0 °F 30.64 in SE 1.0 mph 3.0 mph 66 % 0.00 in
03:52 15.8 °F 6.0 °F 30.63 in ENE 2.0 mph 7.0 mph 66 % 0.00 in
04:07 16.0 °F 6.0 °F 30.63 in ESE 1.0 mph 7.0 mph 65 % 0.00 in
04:22 16.1 °F 6.0 °F 30.63 in Calm   4.0 mph 65 % 0.00 in
04:37 16.1 °F 6.0 °F 30.62 in ESE 2.0 mph 3.0 mph 65 % 0.00 in
04:52 16.1 °F 7.0 °F 30.61 in Calm   4.0 mph 67 % 0.00 in
05:07 16.1 °F 7.0 °F 30.60 in ESE 2.0 mph 3.0 mph 67 % 0.00 in
05:22 16.1 °F 7.0 °F 30.60 in SSE 1.0 mph 5.0 mph 67 % 0.00 in
05:38 16.2 °F 7.0 °F 30.59 in SSE 3.0 mph 5.0 mph 68 % 0.00 in
05:53 16.2 °F 7.0 °F 30.58 in SE 2.0 mph 7.0 mph 67 % 0.00 in
06:08 16.2 °F 7.0 °F 30.57 in SSE 3.0 mph 9.0 mph 67 % 0.00 in
06:23 16.2 °F 7.0 °F 30.56 in SSE 2.0 mph 11.0 mph 68 % 0.00 in
06:38 16.2 °F 8.0 °F 30.55 in South 3.0 mph 7.0 mph 69 % 0.00 in
06:53 16.3 °F 8.0 °F 30.55 in ESE 1.0 mph 5.0 mph 70 % 0.00 in
07:08 16.4 °F 8.0 °F 30.54 in SE 1.0 mph 6.0 mph 70 % 0.00 in
07:23 16.5 °F 9.0 °F 30.54 in SSE 1.0 mph 7.0 mph 71 % 0.00 in
07:38 16.7 °F 9.0 °F 30.53 in SSE 2.0 mph 10.0 mph 72 % 0.00 in
07:53 17.0 °F 10.0 °F 30.52 in Calm   8.0 mph 73 % 0.00 in
08:08 17.5 °F 10.0 °F 30.53 in Calm   9.0 mph 73 % 0.00 in
08:23 18.2 °F 11.0 °F 30.53 in SSE 3.0 mph 7.0 mph 74 % 0.00 in
08:38 18.8 °F 12.0 °F 30.53 in Calm   3.0 mph 74 % 0.00 in
08:53 19.4 °F 12.0 °F 30.52 in South 3.0 mph 6.0 mph 74 % 0.00 in
09:08 20.2 °F 13.0 °F 30.52 in South 2.0 mph 7.0 mph 74 % 0.00 in
09:23 21.0 °F 14.0 °F 30.51 in SSE 3.0 mph 7.0 mph 73 % 0.00 in
09:38 21.8 °F 14.0 °F 30.50 in ESE 3.0 mph 6.0 mph 73 % 0.00 in
09:53 21.9 °F 14.0 °F 30.50 in SE 4.0 mph 5.0 mph 73 % 0.00 in
10:08 22.7 °F 15.0 °F 30.49 in SSE 2.0 mph 6.0 mph 73 % 0.00 in
10:23 24.2 °F 17.0 °F 30.48 in SSW 2.0 mph 7.0 mph 73 % 0.00 in
10:39 25.2 °F 17.0 °F 30.47 in SSE 1.0 mph 6.0 mph 72 % 0.00 in
10:54 26.4 °F 19.0 °F 30.46 in South 2.0 mph 4.0 mph 72 % 0.00 in
11:09 27.6 °F 19.0 °F 30.46 in SE 2.0 mph 8.0 mph 71 % 0.00 in
11:24 29.2 °F 21.0 °F 30.44 in SSW 4.0 mph 6.0 mph 71 % 0.00 in
11:39 30.4 °F 21.0 °F 30.43 in SW 1.0 mph 9.0 mph 69 % 0.00 in
11:54 31.2 °F 22.0 °F 30.41 in SE 2.0 mph 7.0 mph 68 % 0.00 in
12:09 32.1 °F 22.0 °F 30.41 in SW 1.0 mph 8.0 mph 66 % 0.00 in
12:24 33.0 °F 22.0 °F 30.39 in SSE 1.0 mph 7.0 mph 65 % 0.00 in
12:39 34.1 °F 23.0 °F 30.38 in SSW 2.0 mph 7.0 mph 63 % 0.00 in
12:54 34.7 °F 23.0 °F 30.36 in South 2.0 mph 8.0 mph 63 % 0.00 in
13:09 35.1 °F 24.0 °F 30.36 in SSE 5.0 mph 8.0 mph 63 % 0.07 in
13:24 35.4 °F 23.0 °F 30.35 in SSE 2.0 mph 8.0 mph 62 % 0.07 in
13:39 36.2 °F 24.0 °F 30.34 in South 2.0 mph 7.0 mph 61 % 0.07 in
13:54 36.2 °F 24.0 °F 30.33 in SSE 5.0 mph 9.0 mph 61 % 0.07 in
14:09 38.3 °F 25.0 °F 30.32 in Calm   2.0 mph 60 % 0.00 in
14:26 37.5 °F 25.0 °F 30.32 in SSE 5.0 mph 5.0 mph 60 % 0.01 in
14:40 37.4 °F 25.0 °F 30.32 in WSW 4.0 mph 6.0 mph 61 % 0.01 in
14:56 37.4 °F 25.0 °F 30.31 in Calm   5.0 mph 62 % 0.01 in
15:12 37.7 °F 26.0 °F 30.30 in South 3.0 mph 8.0 mph 62 % 0.01 in
15:25 38.3 °F 26.0 °F 30.30 in South 2.0 mph 3.0 mph 61 % 0.00 in
15:43 38.4 °F 25.0 °F 30.29 in Calm   4.0 mph 60 % 0.00 in
15:55 38.0 °F 26.0 °F 30.29 in Calm   5.0 mph 62 % 0.00 in
16:10 38.0 °F 26.0 °F 30.28 in South 1.0 mph 5.0 mph 62 % 0.00 in
16:25 37.7 °F 26.0 °F 30.27 in SSW 1.0 mph 5.0 mph 63 % 0.00 in
16:40 37.2 °F 26.0 °F 30.27 in Calm   5.0 mph 64 % 0.00 in
16:55 37.0 °F 27.0 °F 30.27 in Calm   5.0 mph 66 % 0.00 in
17:10 36.7 °F 26.0 °F 30.27 in SSE 1.0 mph 5.0 mph 66 % 0.00 in
17:25 36.2 °F 26.0 °F 30.26 in Calm   5.0 mph 67 % 0.00 in
17:40 35.2 °F 26.0 °F 30.26 in Calm   2.0 mph 69 % 0.00 in
17:55 34.6 °F 26.0 °F 30.25 in South 1.0 mph 4.0 mph 71 % 0.00 in
18:10 34.3 °F 26.0 °F 30.23 in South 2.0 mph 4.0 mph 71 % 0.00 in
18:25 34.1 °F 26.0 °F 30.24 in Calm   3.0 mph 72 % 0.00 in
18:40 33.9 °F 26.0 °F 30.24 in Calm   5.0 mph 72 % 0.00 in
18:55 33.3 °F 26.0 °F 30.25 in Calm     73 % 0.00 in
19:10 32.9 °F 25.0 °F 30.24 in Calm     74 % 0.00 in
19:25 32.4 °F 25.0 °F 30.24 in Calm     75 % 0.00 in
19:40 32.0 °F 25.0 °F 30.24 in Calm     75 % 0.00 in
19:55 31.5 °F 24.0 °F 30.23 in Calm     75 % 0.00 in
20:10 30.6 °F 24.0 °F 30.23 in Calm   3.0 mph 77 % 0.00 in
20:25 30.2 °F 24.0 °F 30.21 in Calm   1.0 mph 78 % 0.00 in
20:40 30.2 °F 24.0 °F 30.21 in Calm   2.0 mph 79 % 0.00 in
20:55 30.1 °F 25.0 °F 30.21 in Calm   1.0 mph 80 % 0.00 in
21:10 30.2 °F 25.0 °F 30.20 in Calm   1.0 mph 80 % 0.00 in
21:25 30.2 °F 25.0 °F 30.20 in Calm   1.0 mph 80 % 0.00 in
21:40 30.1 °F 25.0 °F 30.20 in Calm     80 % 0.00 in
21:55 30.0 °F 25.0 °F 30.20 in Calm   2.0 mph 80 % 0.00 in
22:10 29.9 °F 24.0 °F 30.20 in South 2.0 mph 2.0 mph 80 % 0.00 in
22:25 30.0 °F 25.0 °F 30.19 in Calm   2.0 mph 80 % 0.00 in
22:40 29.9 °F 24.0 °F 30.19 in Calm   2.0 mph 80 % 0.00 in
22:55 30.1 °F 25.0 °F 30.19 in Calm   1.0 mph 80 % 0.00 in
23:10 30.3 °F 25.0 °F 30.18 in Calm   4.0 mph 80 % 0.00 in
23:25 30.4 °F 25.0 °F 30.18 in Calm   2.0 mph 79 % 0.00 in
23:41 30.2 °F 24.0 °F 30.17 in Calm   1.0 mph 78 % 0.00 in
23:56 29.8 °F 24.0 °F 30.16 in SSW 1.0 mph 2.0 mph 78 % 0.00 in
Des Moines Weather and Climate
Compliments of Weather Underground - 3 mb

Script developed by  Jim McMurry - jmcmurry@mwt.net Adapted for the template by  Wim van der Kuil - Leuven-Template.eu

You find our weather info also at:

Weather Underground

Equipment we use:

Weather-station
Davis VP2 Plus

Weather-program
Davis Weatherlink.Com

Weather-server
iMac (Retina 4K, 21.5-inch, Late 2015)

Provider
Hostmonster.com

Davis VP2 Plus

Davis Weatherlink.Com

iMac (Retina 4K, 21.5-inch, Late 2015)

Hostmonster.com